Time;durP1;ratioP1;P1;durP2;ratioP2;P2;SDS_P1;SDS_P2;PMS_P1;PMS_P2;Temp;Humidity;BMP_temperature;BMP_pressure;BME280_temperature;BME280_humidity;BME280_pressure;Samples;Min_cycle;Max_cycle;Signal;HPM_P1;HPM_P2
2022/07/10 00:01:46;;;;;;;;;;;13.80;99.90;;;;;;5066828;28;19932;-65
2022/07/10 00:04:13;;;;;;;;;;;13.70;99.90;;;;;;5066474;28;19924;-65
2022/07/10 00:06:41;;;;;;;;;;;13.70;99.90;;;;;;5063426;28;19932;-66
2022/07/10 00:09:08;;;;;;;;;;;13.80;99.90;;;;;;5063142;28;19931;-66
2022/07/10 00:11:34;;;;;;;;;;;13.70;99.90;;;;;;5064323;28;20019;-66
2022/07/10 00:14:02;;;;;;;;;;;13.60;99.90;;;;;;5063716;28;19935;-64
2022/07/10 00:16:30;;;;;;;;;;;13.60;99.90;;;;;;5064139;28;20101;-66
2022/07/10 00:18:57;;;;;;;;;;;13.60;99.90;;;;;;5065053;28;19924;-67
2022/07/10 00:21:23;;;;;;;;;;;13.50;99.90;;;;;;5064907;28;20059;-67
2022/07/10 00:23:50;;;;;;;;;;;13.50;99.90;;;;;;5064168;28;19929;-66
2022/07/10 00:26:17;;;;;;;;;;;13.50;99.90;;;;;;5065961;28;19960;-67
2022/07/10 00:28:43;;;;;;;;;;;13.50;99.90;;;;;;5062979;28;20011;-67
2022/07/10 00:31:11;;;;;;;;;;;13.60;99.90;;;;;;5070412;28;19931;-65
2022/07/10 00:33:38;;;;;;;;;;;13.50;99.90;;;;;;5064169;28;20011;-66
2022/07/10 00:36:06;;;;;;;;;;;13.60;99.90;;;;;;5063484;28;20380;-66
2022/07/10 00:38:32;;;;;;;;;;;13.50;99.90;;;;;;5064639;28;20354;-66
2022/07/10 00:40:59;;;;;;;;;;;13.50;99.90;;;;;;5063333;28;20055;-66
2022/07/10 00:43:26;;;;;;;;;;;13.50;99.90;;;;;;5063317;28;19940;-66
2022/07/10 00:45:53;;;;;;;;;;;13.40;99.90;;;;;;5062964;28;19925;-66
2022/07/10 00:48:21;;;;;;;;;;;13.30;99.90;;;;;;5066368;28;20007;-66
2022/07/10 00:50:48;;;;;;;;;;;13.20;99.90;;;;;;5070351;28;20007;-66
2022/07/10 00:53:15;;;;;;;;;;;13.20;99.90;;;;;;5066566;28;20443;-66
2022/07/10 00:55:42;;;;;;;;;;;13.30;99.90;;;;;;5066761;28;20031;-66
2022/07/10 00:58:10;;;;;;;;;;;13.20;99.90;;;;;;5063297;28;20265;-66
2022/07/10 01:00:37;;;;;;;;;;;13.20;99.90;;;;;;5061008;28;19944;-66
2022/07/10 01:03:04;;;;;;;;;;;13.20;99.90;;;;;;5067470;28;19924;-66
2022/07/10 01:05:32;;;;;;;;;;;13.20;99.90;;;;;;5066114;28;19990;-66
2022/07/10 01:07:59;;;;;;;;;;;13.20;99.90;;;;;;5062380;28;19931;-66
2022/07/10 01:10:25;;;;;;;;;;;13.20;99.90;;;;;;5063294;28;20003;-66
2022/07/10 01:12:53;;;;;;;;;;;13.20;99.90;;;;;;5064457;28;20463;-66
2022/07/10 01:15:19;;;;;;;;;;;13.10;99.90;;;;;;5064929;28;19930;-66
2022/07/10 01:17:48;;;;;;;;;;;13.00;99.90;;;;;;5062498;28;19999;-67
2022/07/10 01:20:15;;;;;;;;;;;12.90;99.90;;;;;;5066209;28;19925;-66
2022/07/10 01:22:43;;;;;;;;;;;12.90;99.90;;;;;;5062027;28;20292;-66
2022/07/10 01:25:11;;;;;;;;;;;12.80;99.90;;;;;;5060506;28;19976;-67
2022/07/10 01:27:38;;;;;;;;;;;12.80;99.90;;;;;;5063890;28;20307;-66
2022/07/10 01:30:05;;;;;;;;;;;12.80;99.90;;;;;;5063213;28;20018;-67
2022/07/10 01:32:37;;;;;;;;;;;12.80;99.90;;;;;;5062148;28;20019;-66
2022/07/10 01:35:04;;;;;;;;;;;12.70;99.90;;;;;;5060164;28;19932;-66
2022/07/10 01:37:30;;;;;;;;;;;12.70;99.90;;;;;;5062839;28;20398;-67
2022/07/10 01:39:59;;;;;;;;;;;12.70;99.90;;;;;;5063344;28;19928;-66
2022/07/10 01:42:26;;;;;;;;;;;12.70;99.90;;;;;;5059614;28;20029;-66
2022/07/10 01:44:53;;;;;;;;;;;12.70;99.90;;;;;;5062068;28;20043;-67
2022/07/10 01:47:24;;;;;;;;;;;12.70;99.90;;;;;;5061437;28;19932;-67
2022/07/10 01:49:50;;;;;;;;;;;12.70;99.90;;;;;;5061570;28;19943;-66
2022/07/10 01:52:17;;;;;;;;;;;12.60;99.90;;;;;;5064349;28;19970;-66
2022/07/10 01:54:44;;;;;;;;;;;12.60;99.90;;;;;;5065047;28;20439;-66
2022/07/10 01:57:12;;;;;;;;;;;12.60;99.90;;;;;;5060027;28;19935;-67
2022/07/10 01:59:38;;;;;;;;;;;12.60;99.90;;;;;;5064872;28;20281;-67
2022/07/10 02:02:05;;;;;;;;;;;12.50;99.90;;;;;;5069078;28;20019;-66
2022/07/10 02:04:43;;;;;;;;;;;12.50;99.90;;;;;;5067462;28;19967;-66
2022/07/10 02:07:10;;;;;;;;;;;12.50;99.90;;;;;;5061691;28;20359;-66
2022/07/10 02:09:37;;;;;;;;;;;12.50;99.90;;;;;;5060771;28;19960;-66
2022/07/10 02:12:04;;;;;;;;;;;12.50;99.90;;;;;;5061809;28;20299;-66
2022/07/10 02:14:32;;;;;;;;;;;12.50;99.90;;;;;;5061953;28;20279;-66
2022/07/10 02:16:59;;;;;;;;;;;12.40;99.90;;;;;;5061160;28;20031;-66
2022/07/10 02:19:26;;;;;;;;;;;12.40;99.90;;;;;;5062015;28;19940;-66
2022/07/10 02:21:52;;;;;;;;;;;12.40;99.90;;;;;;5061934;28;20784;-65
2022/07/10 02:24:19;;;;;;;;;;;12.30;99.90;;;;;;5061330;28;19972;-65
2022/07/10 02:26:46;;;;;;;;;;;12.30;99.90;;;;;;5061956;28;20341;-66
2022/07/10 02:29:13;;;;;;;;;;;12.30;99.90;;;;;;5062483;28;20019;-66
2022/07/10 02:31:41;;;;;;;;;;;12.30;99.90;;;;;;5062405;28;20023;-66
2022/07/10 02:34:07;;;;;;;;;;;12.20;99.90;;;;;;5062432;28;19964;-67
2022/07/10 02:36:34;;;;;;;;;;;12.20;99.90;;;;;;5061693;28;20004;-66
2022/07/10 02:39:01;;;;;;;;;;;12.20;99.90;;;;;;5058596;28;20565;-66
2022/07/10 02:41:28;;;;;;;;;;;12.10;99.90;;;;;;5061256;28;19976;-66
2022/07/10 02:43:54;;;;;;;;;;;12.10;99.90;;;;;;5056750;28;20037;-66
2022/07/10 02:46:21;;;;;;;;;;;12.00;99.90;;;;;;5057415;28;20050;-66
2022/07/10 02:48:49;;;;;;;;;;;12.00;99.90;;;;;;5058059;28;20626;-66
2022/07/10 02:51:16;;;;;;;;;;;12.00;99.90;;;;;;5058001;28;20398;-66
2022/07/10 02:53:42;;;;;;;;;;;12.00;99.90;;;;;;5056228;28;20010;-67
2022/07/10 02:56:09;;;;;;;;;;;11.90;99.90;;;;;;5059766;28;19928;-66
2022/07/10 02:58:38;;;;;;;;;;;11.90;99.90;;;;;;5060239;28;19933;-68
2022/07/10 03:01:05;;;;;;;;;;;12.00;99.90;;;;;;5056647;28;19950;-68
2022/07/10 03:03:32;;;;;;;;;;;12.00;99.90;;;;;;5060085;28;19956;-68
2022/07/10 03:06:00;;;;;;;;;;;11.90;99.90;;;;;;5058302;28;19931;-68
2022/07/10 03:08:27;;;;;;;;;;;11.90;99.90;;;;;;5057967;28;19931;-68
2022/07/10 03:10:54;;;;;;;;;;;11.90;99.90;;;;;;5057221;28;20261;-68
2022/07/10 03:13:20;;;;;;;;;;;11.90;99.90;;;;;;5055606;28;19968;-69
2022/07/10 03:15:47;;;;;;;;;;;11.90;99.90;;;;;;5058941;28;19928;-66
2022/07/10 03:18:14;;;;;;;;;;;12.00;99.90;;;;;;5053860;28;19952;-66
2022/07/10 03:20:41;;;;;;;;;;;12.00;99.90;;;;;;5057937;28;20023;-66
2022/07/10 03:23:09;;;;;;;;;;;12.00;99.90;;;;;;5056273;28;19934;-66
2022/07/10 03:25:37;;;;;;;;;;;12.00;99.90;;;;;;5055199;28;21918;-65
2022/07/10 03:28:04;;;;;;;;;;;12.00;99.90;;;;;;5055324;28;20018;-66
2022/07/10 03:30:31;;;;;;;;;;;12.00;99.90;;;;;;5058706;28;20811;-66
2022/07/10 03:32:57;;;;;;;;;;;12.00;99.90;;;;;;5054233;28;19931;-67
2022/07/10 03:35:25;;;;;;;;;;;12.00;99.90;;;;;;5053937;28;19935;-66
2022/07/10 03:37:52;;;;;;;;;;;12.00;99.90;;;;;;5051745;28;19928;-67
2022/07/10 03:40:20;;;;;;;;;;;12.00;99.90;;;;;;5055618;28;19931;-66
2022/07/10 03:42:47;;;;;;;;;;;12.00;99.90;;;;;;5051973;28;20341;-66
2022/07/10 03:45:13;;;;;;;;;;;11.90;99.90;;;;;;5055421;28;19929;-69
2022/07/10 03:47:40;;;;;;;;;;;11.90;99.90;;;;;;5057564;28;19991;-68
2022/07/10 03:50:07;;;;;;;;;;;11.90;99.90;;;;;;5054668;28;19928;-68
2022/07/10 03:52:34;;;;;;;;;;;11.90;99.90;;;;;;5058800;28;20023;-69
2022/07/10 03:55:00;;;;;;;;;;;11.90;99.90;;;;;;5056120;28;19936;-69
2022/07/10 04:00:13;;;;;;;;;;;11.80;99.90;;;;;;5056163;28;19940;-69
2022/07/10 04:02:40;;;;;;;;;;;11.80;99.90;;;;;;5059852;28;19932;-68
2022/07/10 04:05:07;;;;;;;;;;;11.80;99.90;;;;;;5057434;28;19931;-68
2022/07/10 04:07:34;;;;;;;;;;;11.80;99.90;;;;;;5055929;28;20494;-69
2022/07/10 04:10:01;;;;;;;;;;;11.80;99.90;;;;;;5056856;28;19995;-68
2022/07/10 04:12:29;;;;;;;;;;;11.80;99.90;;;;;;5054938;28;19979;-68
2022/07/10 04:14:56;;;;;;;;;;;11.80;99.90;;;;;;5058199;28;19976;-67
2022/07/10 04:17:22;;;;;;;;;;;11.80;99.90;;;;;;5059703;28;19928;-68
2022/07/10 04:19:49;;;;;;;;;;;11.80;99.90;;;;;;5057784;28;20070;-68
2022/07/10 04:22:16;;;;;;;;;;;11.80;99.90;;;;;;5057683;28;19932;-68
2022/07/10 04:24:42;;;;;;;;;;;11.80;99.90;;;;;;5053532;28;19928;-68
2022/07/10 04:27:09;;;;;;;;;;;11.80;99.90;;;;;;5057406;28;19964;-68
2022/07/10 04:29:37;;;;;;;;;;;11.90;99.90;;;;;;5056999;28;20063;-68
2022/07/10 04:32:04;;;;;;;;;;;11.90;99.90;;;;;;5056468;28;20035;-68
2022/07/10 04:34:31;;;;;;;;;;;12.00;99.90;;;;;;5052850;28;20689;-68
2022/07/10 04:36:58;;;;;;;;;;;12.10;99.90;;;;;;5056561;28;19928;-68
2022/07/10 04:39:25;;;;;;;;;;;12.10;99.90;;;;;;5055100;28;20058;-68
2022/07/10 04:41:51;;;;;;;;;;;12.20;99.90;;;;;;5062962;28;19950;-68
2022/07/10 04:44:18;;;;;;;;;;;12.30;99.90;;;;;;5058974;28;20003;-68
2022/07/10 04:46:46;;;;;;;;;;;12.30;99.90;;;;;;5059584;28;20016;-68
2022/07/10 04:49:14;;;;;;;;;;;12.40;99.90;;;;;;5058982;28;19998;-68
2022/07/10 04:51:41;;;;;;;;;;;12.50;99.90;;;;;;5061922;28;19925;-68
2022/07/10 04:54:07;;;;;;;;;;;12.60;99.90;;;;;;5058873;28;19938;-68
2022/07/10 04:56:34;;;;;;;;;;;12.60;99.90;;;;;;5056198;28;20050;-66
2022/07/10 04:59:01;;;;;;;;;;;12.70;99.90;;;;;;5059071;28;20332;-68
2022/07/10 05:01:28;;;;;;;;;;;12.80;99.90;;;;;;5061564;28;19932;-68
2022/07/10 05:03:56;;;;;;;;;;;12.90;99.90;;;;;;5061721;28;20003;-68
2022/07/10 05:06:22;;;;;;;;;;;13.00;99.90;;;;;;5062328;28;19983;-68
2022/07/10 05:08:49;;;;;;;;;;;13.10;99.90;;;;;;5059548;28;19954;-67
2022/07/10 05:11:16;;;;;;;;;;;13.10;99.90;;;;;;5060902;28;19924;-68
2022/07/10 05:13:45;;;;;;;;;;;13.20;99.90;;;;;;5059813;28;19933;-67
2022/07/10 05:16:12;;;;;;;;;;;13.30;99.90;;;;;;5063977;28;19929;-68
2022/07/10 05:18:39;;;;;;;;;;;13.50;99.90;;;;;;5062830;28;20387;-70
2022/07/10 05:21:07;;;;;;;;;;;13.50;99.90;;;;;;5059721;28;20023;-68
2022/07/10 05:23:34;;;;;;;;;;;13.60;99.90;;;;;;5063535;28;19964;-68
2022/07/10 05:26:01;;;;;;;;;;;13.70;99.90;;;;;;5061813;28;20479;-69
2022/07/10 05:28:27;;;;;;;;;;;13.80;99.90;;;;;;5060807;28;20023;-68
2022/07/10 05:30:57;;;;;;;;;;;13.90;99.90;;;;;;5060047;28;20437;-69
2022/07/10 05:33:26;;;;;;;;;;;14.00;99.90;;;;;;5063132;28;19932;-69
2022/07/10 05:35:53;;;;;;;;;;;14.10;99.90;;;;;;5064617;28;20011;-68
2022/07/10 05:38:21;;;;;;;;;;;14.10;99.90;;;;;;5062794;28;19928;-70
2022/07/10 05:40:48;;;;;;;;;;;14.20;99.90;;;;;;5057435;28;20371;-69
2022/07/10 05:43:15;;;;;;;;;;;14.40;99.90;;;;;;5059441;28;19978;-69
2022/07/10 05:45:42;;;;;;;;;;;14.60;99.90;;;;;;5062164;28;19939;-69
2022/07/10 05:48:09;;;;;;;;;;;14.90;99.90;;;;;;5060213;28;19924;-69
2022/07/10 05:50:36;;;;;;;;;;;15.10;99.90;;;;;;5060920;28;19931;-67
2022/07/10 05:53:03;;;;;;;;;;;15.40;99.90;;;;;;5061944;28;20011;-66
2022/07/10 05:55:31;;;;;;;;;;;15.50;99.90;;;;;;5062518;28;20391;-66
2022/07/10 05:57:59;;;;;;;;;;;15.70;99.90;;;;;;5063055;28;19975;-67
2022/07/10 06:00:25;;;;;;;;;;;15.80;99.90;;;;;;5067255;28;19936;-68
2022/07/10 06:02:52;;;;;;;;;;;16.00;99.90;;;;;;5067025;28;19978;-67
2022/07/10 06:05:19;;;;;;;;;;;16.00;99.90;;;;;;5066186;28;19935;-68
2022/07/10 06:07:45;;;;;;;;;;;16.20;99.90;;;;;;5060639;28;20352;-68
2022/07/10 06:10:13;;;;;;;;;;;16.30;99.90;;;;;;5061794;28;20003;-68
2022/07/10 06:12:41;;;;;;;;;;;16.30;99.90;;;;;;5058494;28;20370;-68
2022/07/10 06:15:08;;;;;;;;;;;16.50;99.90;;;;;;5061100;28;19975;-68
2022/07/10 06:17:34;;;;;;;;;;;16.70;99.90;;;;;;5062951;28;20016;-68
2022/07/10 06:20:01;;;;;;;;;;;16.70;99.90;;;;;;5061478;28;20012;-68
2022/07/10 06:22:33;;;;;;;;;;;16.80;99.90;;;;;;5059030;28;19972;-68
2022/07/10 06:25:01;;;;;;;;;;;16.80;99.90;;;;;;5065920;28;20002;-68
2022/07/10 06:27:28;;;;;;;;;;;16.80;99.90;;;;;;5059777;28;19977;-68
2022/07/10 06:29:56;;;;;;;;;;;17.00;99.90;;;;;;5057316;28;19928;-68
2022/07/10 06:32:24;;;;;;;;;;;17.20;99.90;;;;;;5059250;28;19978;-68
2022/07/10 06:34:50;;;;;;;;;;;17.40;99.90;;;;;;5057808;28;20023;-67
2022/07/10 06:37:17;;;;;;;;;;;17.40;99.90;;;;;;5062684;28;19928;-67
2022/07/10 06:39:44;;;;;;;;;;;17.40;99.90;;;;;;5062277;28;20015;-67
2022/07/10 06:42:10;;;;;;;;;;;17.40;99.90;;;;;;5067217;28;19939;-68
2022/07/10 06:44:37;;;;;;;;;;;17.40;99.90;;;;;;5062206;28;20107;-68
2022/07/10 06:49:51;;;;;;;;;;;17.20;99.90;;;;;;5063488;28;20559;-68
2022/07/10 06:52:18;;;;;;;;;;;17.30;99.90;;;;;;5062171;28;20015;-68
2022/07/10 06:54:45;;;;;;;;;;;17.20;99.90;;;;;;5058885;28;20047;-68
2022/07/10 06:57:12;;;;;;;;;;;17.00;99.90;;;;;;5057600;28;20349;-68
2022/07/10 06:59:39;;;;;;;;;;;17.00;99.90;;;;;;5058695;28;19925;-68
2022/07/10 07:02:07;;;;;;;;;;;16.70;99.90;;;;;;5064284;28;19924;-67
2022/07/10 07:04:33;;;;;;;;;;;17.00;99.90;;;;;;5058473;28;19924;-68
2022/07/10 07:07:00;;;;;;;;;;;17.20;99.90;;;;;;5066483;28;19975;-67
2022/07/10 07:09:27;;;;;;;;;;;17.40;99.90;;;;;;5064874;28;20006;-68
2022/07/10 07:11:54;;;;;;;;;;;17.60;99.90;;;;;;5061811;28;20387;-67
2022/07/10 07:14:20;;;;;;;;;;;17.80;99.90;;;;;;5067512;28;19932;-67
2022/07/10 07:16:57;;;;;;;;;;;17.80;99.90;;;;;;5066048;28;20346;-67
2022/07/10 07:19:31;;;;;;;;;;;18.10;99.90;;;;;;5064680;28;20451;-68
2022/07/10 07:24:43;;;;;;;;;;;19.10;99.10;;;;;;5060587;28;20331;-67
2022/07/10 07:27:10;;;;;;;;;;;19.10;97.20;;;;;;5065701;28;19932;-68
2022/07/10 07:29:37;;;;;;;;;;;19.00;97.00;;;;;;5061846;28;20031;-67
2022/07/10 07:32:04;;;;;;;;;;;19.10;97.50;;;;;;5063218;28;20023;-67
2022/07/10 07:34:32;;;;;;;;;;;19.40;95.80;;;;;;5061804;28;19939;-68
2022/07/10 07:36:59;;;;;;;;;;;19.60;95.40;;;;;;5061731;28;20039;-67
2022/07/10 07:39:25;;;;;;;;;;;19.90;94.90;;;;;;5057219;28;19938;-67
2022/07/10 07:41:52;;;;;;;;;;;21.00;94.20;;;;;;5057026;28;20464;-67
2022/07/10 07:44:19;;;;;;;;;;;22.70;88.10;;;;;;5065721;28;20018;-67
2022/07/10 07:46:45;;;;;;;;;;;22.30;80.00;;;;;;5062811;28;20035;-67
2022/07/10 07:49:12;;;;;;;;;;;21.60;82.00;;;;;;5060171;28;20038;-66
2022/07/10 07:51:40;;;;;;;;;;;21.40;83.30;;;;;;5055072;28;20046;-66
2022/07/10 07:54:07;;;;;;;;;;;20.00;88.40;;;;;;5056690;28;20011;-65
2022/07/10 07:56:34;;;;;;;;;;;19.30;91.50;;;;;;5059119;28;19935;-66
2022/07/10 07:59:00;;;;;;;;;;;19.30;91.80;;;;;;5062861;28;19936;-66
2022/07/10 08:01:27;;;;;;;;;;;19.30;91.70;;;;;;5062331;28;19932;-67
2022/07/10 08:03:55;;;;;;;;;;;19.30;92.10;;;;;;5063305;28;19933;-68
2022/07/10 08:06:22;;;;;;;;;;;19.40;91.80;;;;;;5062806;28;19932;-69
2022/07/10 08:08:50;;;;;;;;;;;19.30;92.30;;;;;;5056296;28;19931;-69
2022/07/10 08:11:17;;;;;;;;;;;19.50;92.00;;;;;;5059203;28;20040;-66
2022/07/10 08:13:44;;;;;;;;;;;19.50;92.20;;;;;;5059854;28;19964;-67
2022/07/10 08:16:10;;;;;;;;;;;19.30;92.90;;;;;;5062020;28;19924;-67
2022/07/10 08:18:37;;;;;;;;;;;19.30;92.50;;;;;;5066211;28;20027;-67
2022/07/10 08:21:04;;;;;;;;;;;19.90;91.80;;;;;;5067630;28;19936;-68
2022/07/10 08:23:31;;;;;;;;;;;20.90;90.00;;;;;;5062052;28;19924;-67
2022/07/10 08:25:59;;;;;;;;;;;21.50;84.90;;;;;;5066833;28;19960;-68
2022/07/10 08:28:25;;;;;;;;;;;21.80;82.50;;;;;;5059764;28;19928;-68
2022/07/10 08:30:52;;;;;;;;;;;21.40;82.70;;;;;;5062687;28;20011;-67
2022/07/10 08:33:19;;;;;;;;;;;20.50;87.40;;;;;;5062378;28;20343;-68
2022/07/10 08:35:46;;;;;;;;;;;20.30;89.30;;;;;;5067327;28;19956;-67
2022/07/10 08:38:12;;;;;;;;;;;20.60;87.80;;;;;;5060754;28;20403;-68
2022/07/10 08:40:39;;;;;;;;;;;20.80;86.50;;;;;;5062376;28;19924;-68
2022/07/10 08:43:08;;;;;;;;;;;21.70;84.20;;;;;;5062601;28;20091;-70
2022/07/10 08:45:35;;;;;;;;;;;21.80;84.10;;;;;;5062704;28;19931;-70
2022/07/10 08:48:02;;;;;;;;;;;21.00;84.10;;;;;;5064779;28;19968;-69
2022/07/10 08:50:30;;;;;;;;;;;20.80;83.80;;;;;;5060090;28;19944;-69
2022/07/10 08:53:08;;;;;;;;;;;21.50;86.20;;;;;;5063284;28;20297;-70
2022/07/10 08:55:36;;;;;;;;;;;21.60;82.20;;;;;;5058854;28;20403;-69
2022/07/10 08:58:04;;;;;;;;;;;21.60;80.40;;;;;;5061896;28;19929;-67
2022/07/10 09:00:32;;;;;;;;;;;20.50;85.10;;;;;;5059963;28;20519;-70
2022/07/10 09:02:59;;;;;;;;;;;20.40;86.50;;;;;;5060113;28;19928;-69
2022/07/10 09:05:26;;;;;;;;;;;20.00;86.60;;;;;;5064032;28;19950;-69
2022/07/10 09:07:54;;;;;;;;;;;19.80;88.60;;;;;;5055267;28;20380;-68
2022/07/10 09:10:22;;;;;;;;;;;20.60;88.70;;;;;;5056164;28;19932;-69
2022/07/10 09:12:52;;;;;;;;;;;21.50;82.20;;;;;;5060258;28;19956;-70
2022/07/10 09:15:20;;;;;;;;;;;22.30;78.30;;;;;;5061938;28;20001;-69
2022/07/10 09:17:52;;;;;;;;;;;21.50;80.10;;;;;;5056333;28;19924;-69
2022/07/10 09:20:40;;;;;;;;;;;22.10;77.80;;;;;;5059786;28;20394;-69
2022/07/10 09:23:15;;;;;;;;;;;22.20;76.90;;;;;;5053351;28;19985;-69
2022/07/10 09:25:41;;;;;;;;;;;21.70;79.20;;;;;;5058837;28;20016;-69
2022/07/10 09:28:08;;;;;;;;;;;21.10;81.70;;;;;;5057876;28;19947;-69
2022/07/10 09:30:36;;;;;;;;;;;20.90;83.50;;;;;;5055818;28;19933;-68
2022/07/10 09:33:18;;;;;;;;;;;21.40;81.80;;;;;;5059970;28;19983;-70
2022/07/10 09:36:07;;;;;;;;;;;22.30;77.90;;;;;;5062893;28;19943;-70
2022/07/10 09:38:49;;;;;;;;;;;22.70;74.00;;;;;;5058325;28;19932;-69
2022/07/10 09:41:18;;;;;;;;;;;23.00;72.80;;;;;;5057108;28;21949;-70
2022/07/10 09:43:45;;;;;;;;;;;23.30;70.50;;;;;;5058158;28;19934;-70
2022/07/10 09:46:12;;;;;;;;;;;23.80;68.30;;;;;;5055492;28;20364;-70
2022/07/10 09:48:40;;;;;;;;;;;24.00;66.00;;;;;;5061828;28;19998;-69
2022/07/10 09:51:08;;;;;;;;;;;25.10;62.50;;;;;;5061817;28;20409;-70
2022/07/10 09:53:38;;;;;;;;;;;25.10;60.50;;;;;;5061273;28;20402;-70
2022/07/10 09:56:07;;;;;;;;;;;24.00;59.20;;;;;;5062824;28;20284;-71
2022/07/10 09:58:35;;;;;;;;;;;22.90;66.00;;;;;;5062131;28;21242;-68
2022/07/10 10:01:03;;;;;;;;;;;23.10;64.80;;;;;;5055459;28;19932;-68
2022/07/10 10:03:32;;;;;;;;;;;22.90;65.70;;;;;;5053788;28;19924;-68
2022/07/10 10:06:02;;;;;;;;;;;22.80;65.70;;;;;;5052648;28;20121;-69
2022/07/10 10:08:30;;;;;;;;;;;22.60;65.60;;;;;;5055325;28;20023;-69
2022/07/10 10:10:58;;;;;;;;;;;21.80;69.40;;;;;;5055905;28;19956;-69
2022/07/10 10:13:27;;;;;;;;;;;22.30;69.90;;;;;;5059279;28;20027;-66
2022/07/10 10:15:54;;;;;;;;;;;23.20;65.20;;;;;;5058792;28;19930;-68
2022/07/10 10:18:21;;;;;;;;;;;23.40;61.20;;;;;;5053927;28;20000;-68
2022/07/10 10:20:47;;;;;;;;;;;23.40;60.10;;;;;;5059984;28;19932;-68
2022/07/10 10:23:17;;;;;;;;;;;23.30;59.30;;;;;;5062700;28;20323;-69
2022/07/10 10:25:44;;;;;;;;;;;22.90;60.20;;;;;;5062379;28;20788;-69
2022/07/10 10:28:12;;;;;;;;;;;22.10;63.20;;;;;;5059688;28;19932;-69
2022/07/10 10:30:40;;;;;;;;;;;22.40;66.10;;;;;;5057106;28;20022;-69
2022/07/10 10:33:22;;;;;;;;;;;22.70;62.50;;;;;;5054523;28;20008;-68
2022/07/10 10:35:48;;;;;;;;;;;21.70;65.80;;;;;;5047097;28;19928;-70
2022/07/10 10:38:17;;;;;;;;;;;22.10;65.90;;;;;;5054444;28;19981;-68
2022/07/10 10:40:43;;;;;;;;;;;22.90;64.50;;;;;;5056796;28;20012;-68
2022/07/10 10:43:17;;;;;;;;;;;23.30;61.70;;;;;;5057133;28;20417;-69
2022/07/10 10:45:44;;;;;;;;;;;23.50;60.90;;;;;;5059578;28;19925;-70
2022/07/10 10:48:12;;;;;;;;;;;23.60;60.50;;;;;;5059182;28;19924;-69
2022/07/10 10:50:43;;;;;;;;;;;23.20;62.30;;;;;;5065801;28;19924;-68
2022/07/10 10:53:13;;;;;;;;;;;23.00;59.90;;;;;;5061208;28;20026;-69
2022/07/10 10:55:42;;;;;;;;;;;23.30;58.90;;;;;;5060117;28;19932;-68
2022/07/10 10:58:14;;;;;;;;;;;22.60;60.70;;;;;;5057393;28;20023;-68
2022/07/10 11:00:41;;;;;;;;;;;22.80;60.80;;;;;;5066071;28;19971;-68
2022/07/10 11:03:19;;;;;;;;;;;22.40;62.00;;;;;;5060998;28;19924;-69
2022/07/10 11:05:47;;;;;;;;;;;22.80;62.10;;;;;;5059759;28;19986;-69
2022/07/10 11:08:14;;;;;;;;;;;23.40;61.20;;;;;;5060901;28;19924;-68
2022/07/10 11:10:43;;;;;;;;;;;23.90;58.90;;;;;;5062008;28;20296;-70
2022/07/10 11:13:10;;;;;;;;;;;22.60;58.30;;;;;;5057783;28;19933;-70
2022/07/10 11:15:40;;;;;;;;;;;23.00;59.50;;;;;;5055564;28;19932;-70
2022/07/10 11:18:08;;;;;;;;;;;22.90;59.40;;;;;;5052509;28;19935;-70
2022/07/10 11:20:36;;;;;;;;;;;23.20;57.90;;;;;;5056209;28;19959;-69
2022/07/10 11:23:17;;;;;;;;;;;23.20;59.10;;;;;;5052524;28;19932;-70
2022/07/10 11:26:00;;;;;;;;;;;23.90;57.10;;;;;;5052086;28;20057;-70
2022/07/10 11:28:29;;;;;;;;;;;23.70;57.60;;;;;;5057714;28;19928;-68
2022/07/10 11:30:56;;;;;;;;;;;23.60;56.80;;;;;;5057581;28;19996;-70
2022/07/10 11:33:23;;;;;;;;;;;23.80;55.90;;;;;;5057009;28;19971;-70
2022/07/10 11:35:51;;;;;;;;;;;23.10;58.10;;;;;;5060189;28;19939;-69
2022/07/10 11:38:21;;;;;;;;;;;22.50;59.80;;;;;;5060961;28;19987;-69
2022/07/10 11:40:50;;;;;;;;;;;22.30;59.30;;;;;;5061085;28;19929;-70
2022/07/10 11:43:19;;;;;;;;;;;23.10;59.30;;;;;;5063749;28;19931;-69
2022/07/10 11:45:46;;;;;;;;;;;24.00;56.90;;;;;;5057159;28;19947;-70
2022/07/10 11:48:19;;;;;;;;;;;24.40;55.10;;;;;;5058496;28;19930;-70
2022/07/10 11:50:46;;;;;;;;;;;24.80;54.30;;;;;;5055888;28;20032;-68
2022/07/10 11:53:13;;;;;;;;;;;24.80;51.50;;;;;;5053578;28;20023;-69
2022/07/10 11:55:40;;;;;;;;;;;24.10;52.00;;;;;;5055820;28;19940;-69
2022/07/10 11:58:15;;;;;;;;;;;24.50;53.30;;;;;;5051683;28;20422;-69
2022/07/10 12:00:41;;;;;;;;;;;24.40;52.60;;;;;;5053309;28;19952;-69
2022/07/10 12:03:19;;;;;;;;;;;24.90;52.40;;;;;;5055215;28;20002;-69
2022/07/10 12:05:46;;;;;;;;;;;24.90;52.10;;;;;;5054334;28;19944;-69
2022/07/10 12:08:14;;;;;;;;;;;24.30;52.80;;;;;;5055507;28;19972;-69
2022/07/10 12:10:42;;;;;;;;;;;23.40;53.70;;;;;;5054034;28;20039;-68
2022/07/10 12:13:10;;;;;;;;;;;23.60;54.70;;;;;;5058523;28;20290;-69
2022/07/10 12:15:39;;;;;;;;;;;24.30;52.00;;;;;;5052791;28;19939;-70
2022/07/10 12:18:07;;;;;;;;;;;23.50;54.30;;;;;;5060945;28;19925;-70
2022/07/10 12:20:34;;;;;;;;;;;23.80;53.90;;;;;;5060203;28;19929;-70
2022/07/10 12:23:01;;;;;;;;;;;23.30;54.50;;;;;;5065054;28;20145;-70
2022/07/10 12:25:28;;;;;;;;;;;22.80;55.90;;;;;;5063070;28;19980;-68
2022/07/10 12:27:58;;;;;;;;;;;23.30;56.30;;;;;;5060739;28;20003;-70
2022/07/10 12:30:36;;;;;;;;;;;24.30;53.40;;;;;;5065603;28;19929;-70
2022/07/10 12:33:08;;;;;;;;;;;24.60;52.80;;;;;;5063811;28;19925;-70
2022/07/10 12:35:45;;;;;;;;;;;24.40;51.00;;;;;;5063410;28;19928;-70
2022/07/10 12:38:15;;;;;;;;;;;23.40;53.10;;;;;;5060137;28;20463;-70
2022/07/10 12:40:42;;;;;;;;;;;23.10;54.40;;;;;;5055744;28;19968;-69
2022/07/10 12:43:11;;;;;;;;;;;23.70;53.80;;;;;;5054282;28;19971;-70
2022/07/10 12:45:37;;;;;;;;;;;23.40;54.40;;;;;;5060028;28;19990;-68
2022/07/10 12:48:05;;;;;;;;;;;23.80;54.70;;;;;;5055956;28;20015;-68
2022/07/10 12:50:33;;;;;;;;;;;23.70;54.80;;;;;;5061640;28;20000;-68
2022/07/10 12:53:09;;;;;;;;;;;23.60;54.40;;;;;;5056519;28;20024;-68
2022/07/10 12:55:37;;;;;;;;;;;23.80;53.70;;;;;;5056461;28;20011;-68
2022/07/10 12:58:08;;;;;;;;;;;23.70;53.80;;;;;;5059208;28;19929;-68
2022/07/10 13:00:36;;;;;;;;;;;23.50;54.40;;;;;;5061840;28;20018;-69
2022/07/10 13:03:04;;;;;;;;;;;23.70;54.10;;;;;;5062018;28;20063;-69
2022/07/10 13:05:32;;;;;;;;;;;24.10;52.40;;;;;;5071216;28;19924;-68
2022/07/10 13:08:08;;;;;;;;;;;24.40;52.30;;;;;;5064485;28;19933;-68
2022/07/10 13:10:36;;;;;;;;;;;24.00;52.80;;;;;;5065465;28;19933;-68
2022/07/10 13:13:02;;;;;;;;;;;23.40;53.60;;;;;;5063119;28;19924;-69
2022/07/10 13:15:30;;;;;;;;;;;23.50;55.30;;;;;;5060589;28;20015;-69
2022/07/10 13:17:56;;;;;;;;;;;23.80;53.90;;;;;;5064200;28;19924;-69
2022/07/10 13:20:23;;;;;;;;;;;24.40;53.30;;;;;;5066214;28;20485;-69
2022/07/10 13:22:50;;;;;;;;;;;23.50;54.40;;;;;;5064370;28;20019;-69
2022/07/10 13:25:18;;;;;;;;;;;23.50;54.30;;;;;;5061192;28;20454;-70
2022/07/10 13:27:45;;;;;;;;;;;23.00;56.00;;;;;;5059534;28;19947;-69
2022/07/10 13:30:12;;;;;;;;;;;22.80;55.10;;;;;;5057850;28;19925;-69
2022/07/10 13:32:38;;;;;;;;;;;23.20;56.20;;;;;;5061876;28;20042;-70
2022/07/10 13:35:06;;;;;;;;;;;23.70;55.70;;;;;;5058101;28;19931;-69
2022/07/10 13:37:32;;;;;;;;;;;23.90;53.30;;;;;;5059755;28;20362;-70
2022/07/10 13:39:59;;;;;;;;;;;24.10;53.70;;;;;;5059899;28;20094;-69
2022/07/10 13:42:28;;;;;;;;;;;24.10;53.80;;;;;;5062127;28;19925;-70
2022/07/10 13:44:55;;;;;;;;;;;24.20;53.10;;;;;;5064705;28;19928;-70
2022/07/10 13:47:22;;;;;;;;;;;24.30;52.80;;;;;;5066576;28;19932;-70
2022/07/10 13:49:48;;;;;;;;;;;24.40;52.50;;;;;;5067201;28;20026;-70
2022/07/10 13:52:15;;;;;;;;;;;24.80;50.90;;;;;;5065719;28;20383;-70
2022/07/10 13:54:42;;;;;;;;;;;24.70;51.70;;;;;;5066153;28;20418;-70
2022/07/10 13:57:08;;;;;;;;;;;24.50;51.60;;;;;;5069740;28;19928;-70
2022/07/10 13:59:36;;;;;;;;;;;24.80;51.60;;;;;;5066185;28;20019;-70
2022/07/10 14:02:03;;;;;;;;;;;24.80;51.70;;;;;;5063919;28;20269;-70
2022/07/10 14:04:30;;;;;;;;;;;24.70;51.70;;;;;;5061628;28;19932;-70
2022/07/10 14:06:57;;;;;;;;;;;24.40;52.00;;;;;;5066547;28;20032;-70
2022/07/10 14:09:24;;;;;;;;;;;24.00;52.60;;;;;;5063078;28;20361;-70
2022/07/10 14:11:51;;;;;;;;;;;23.30;53.70;;;;;;5069175;28;19931;-70
2022/07/10 14:14:17;;;;;;;;;;;22.90;55.00;;;;;;5061949;28;20471;-70
2022/07/10 14:16:45;;;;;;;;;;;23.30;53.70;;;;;;5065014;28;20380;-68
2022/07/10 14:19:12;;;;;;;;;;;23.40;52.70;;;;;;5064383;28;19942;-69
2022/07/10 14:21:40;;;;;;;;;;;23.30;53.90;;;;;;5064437;28;20432;-71
2022/07/10 14:24:07;;;;;;;;;;;23.50;52.30;;;;;;5065712;28;20016;-69
2022/07/10 14:26:35;;;;;;;;;;;23.10;51.80;;;;;;5062090;28;20008;-69
2022/07/10 14:29:01;;;;;;;;;;;23.20;52.20;;;;;;5057370;28;19954;-68